Time;durP1;ratioP1;P1;durP2;ratioP2;P2;SDS_P1;SDS_P2;PMS_P1;PMS_P2;Temp;Humidity;BMP_temperature;BMP_pressure;BME280_temperature;BME280_humidity;BME280_pressure;Samples;Min_cycle;Max_cycle;Signal;HPM_P1;HPM_P2
2022/06/13 00:00:28;;;;;;;7.90;3.03;;;14.80;99.90;;;;;;5030682;28;20044;-71
2022/06/13 00:02:53;;;;;;;8.00;2.47;;;14.80;99.90;;;;;;5025967;28;20139;-71
2022/06/13 00:05:22;;;;;;;9.05;2.65;;;14.80;99.90;;;;;;5036931;28;20523;-72
2022/06/13 00:07:47;;;;;;;8.43;2.65;;;14.70;99.90;;;;;;5012347;28;20037;-71
2022/06/13 00:10:14;;;;;;;5.80;2.47;;;14.70;99.90;;;;;;4996872;28;20459;-71
2022/06/13 00:12:43;;;;;;;6.97;2.55;;;14.70;99.90;;;;;;5013460;28;20041;-71
2022/06/13 00:15:12;;;;;;;7.63;2.50;;;14.70;99.90;;;;;;5024991;28;20129;-71
2022/06/13 00:17:38;;;;;;;9.27;2.90;;;14.70;99.90;;;;;;5033228;28;20037;-71
2022/06/13 00:20:05;;;;;;;9.15;2.70;;;14.70;99.90;;;;;;5038134;28;20457;-71
2022/06/13 00:22:31;;;;;;;8.18;3.10;;;14.70;99.90;;;;;;5033350;28;20049;-71
2022/06/13 00:24:57;;;;;;;5.93;2.10;;;14.70;99.90;;;;;;5034181;28;20460;-71
2022/06/13 00:27:23;;;;;;;7.45;2.80;;;14.70;99.90;;;;;;5035993;28;20108;-71
2022/06/13 00:29:49;;;;;;;5.85;2.35;;;14.70;99.90;;;;;;5024937;28;20144;-71
2022/06/13 00:32:16;;;;;;;7.88;2.58;;;14.60;99.90;;;;;;5038070;28;20084;-71
2022/06/13 00:34:42;;;;;;;7.40;2.72;;;14.70;99.90;;;;;;5021689;28;20453;-71
2022/06/13 00:37:08;;;;;;;9.32;2.63;;;14.60;99.90;;;;;;5019111;28;20098;-71
2022/06/13 00:39:33;;;;;;;9.70;2.60;;;14.70;99.90;;;;;;5032153;28;20041;-71
2022/06/13 00:41:59;;;;;;;7.60;3.20;;;14.60;99.90;;;;;;5043428;28;20310;-71
2022/06/13 00:44:37;;;;;;;10.43;3.23;;;14.60;99.90;;;;;;5018881;28;20040;-72
2022/06/13 00:47:03;;;;;;;6.47;3.20;;;14.70;99.90;;;;;;5037787;28;20383;-71
2022/06/13 00:49:29;;;;;;;11.70;3.88;;;14.60;99.90;;;;;;5040214;28;20211;-71
2022/06/13 00:52:20;;;;;;;8.23;2.53;;;14.60;99.90;;;;;;5025173;28;20854;-71
2022/06/13 00:54:49;;;;;;;6.07;2.80;;;14.60;99.90;;;;;;5036748;28;20128;-71
2022/06/13 00:57:23;;;;;;;6.68;2.80;;;14.60;99.90;;;;;;5042237;28;20071;-71
2022/06/13 00:59:54;;;;;;;9.82;3.97;;;14.60;99.90;;;;;;5019690;28;20410;-71
2022/06/13 01:02:21;;;;;;;9.88;3.17;;;14.70;99.90;;;;;;5030889;28;20092;-72
2022/06/13 01:04:51;;;;;;;8.80;2.55;;;14.70;99.90;;;;;;5039846;28;20045;-71
2022/06/13 01:07:17;;;;;;;11.25;3.88;;;14.70;99.90;;;;;;5010832;28;20553;-71
2022/06/13 01:12:29;;;;;;;12.30;3.38;;;14.60;99.90;;;;;;5021333;28;20049;-71
2022/06/13 01:15:12;;;;;;;12.63;4.72;;;14.60;99.90;;;;;;5016868;28;20458;-71
2022/06/13 01:17:37;;;;;;;9.45;4.03;;;14.60;99.90;;;;;;5016685;28;21013;-71
2022/06/13 01:20:23;;;;;;;12.57;4.27;;;14.60;99.90;;;;;;5033082;28;20053;-71
2022/06/13 01:23:10;;;;;;;7.88;3.78;;;14.60;99.90;;;;;;5024655;28;20857;-71
2022/06/13 01:25:39;;;;;;;;;;;14.60;99.90;;;;;;5026476;28;20145;-71
2022/06/13 01:28:16;;;;;;;11.23;3.88;;;14.60;99.90;;;;;;5040103;28;19939;-71
2022/06/13 01:30:57;;;;;;;8.85;4.00;;;14.60;99.90;;;;;;5020708;28;20505;-71
2022/06/13 01:33:38;;;;;;;11.13;3.80;;;14.60;99.90;;;;;;5043700;28;20074;-71
2022/06/13 01:36:31;;;;;;;12.13;3.85;;;14.60;99.90;;;;;;5026618;28;20037;-71
2022/06/13 01:39:09;;;;;;;10.43;3.75;;;14.60;99.90;;;;;;5023103;28;20033;-71
2022/06/13 01:42:01;;;;;;;7.57;3.47;;;14.60;99.90;;;;;;4993845;28;20049;-71
2022/06/13 01:44:51;;;;;;;11.52;4.60;;;14.60;99.90;;;;;;5010673;28;20036;-71
2022/06/13 01:47:35;;;;;;;9.98;3.72;;;14.50;99.90;;;;;;5023002;28;20421;-71
2022/06/13 01:50:28;;;;;;;12.40;3.70;;;14.50;99.90;;;;;;5038018;28;20091;-71
2022/06/13 01:52:56;;;;;;;18.17;3.85;;;14.60;99.90;;;;;;5036521;28;20049;-71
2022/06/13 01:55:59;;;;;;;10.25;4.78;;;14.60;99.90;;;;;;5020978;28;20052;-71
2022/06/13 01:58:41;;;;;;;12.15;4.47;;;14.60;99.90;;;;;;5019526;28;20045;-71
2022/06/13 02:01:34;;;;;;;12.80;4.00;;;14.60;99.90;;;;;;5001720;28;20083;-71
2022/06/13 02:04:08;;;;;;;11.45;3.65;;;14.50;99.90;;;;;;5036082;28;20041;-71
2022/06/13 02:06:39;;;;;;;6.60;3.72;;;14.60;99.90;;;;;;5027004;28;20454;-71
2022/06/13 02:09:12;;;;;;;11.07;4.28;;;14.60;99.90;;;;;;5012062;28;20040;-71
2022/06/13 02:11:50;;;;;;;9.38;3.42;;;14.60;99.90;;;;;;5010568;28;20041;-71
2022/06/13 02:14:36;;;;;;;7.13;3.50;;;14.60;99.90;;;;;;5046911;22;20042;-70
2022/06/13 02:17:14;;;;;;;11.10;3.70;;;14.60;99.90;;;;;;5008633;28;20524;-70
2022/06/13 02:19:52;;;;;;;8.27;3.30;;;14.60;99.90;;;;;;5009667;28;20123;-70
2022/06/13 02:22:37;;;;;;;9.00;3.28;;;14.60;99.90;;;;;;5016395;28;20045;-70
2022/06/13 02:25:20;;;;;;;7.88;2.83;;;14.60;99.90;;;;;;5025245;28;20033;-70
2022/06/13 02:28:03;;;;;;;8.75;2.88;;;14.60;99.90;;;;;;5027516;28;20037;-70
2022/06/13 02:30:34;;;;;;;5.85;2.88;;;14.60;99.90;;;;;;5001511;28;20079;-70
2022/06/13 02:33:26;;;;;;;8.70;2.95;;;14.60;99.90;;;;;;5030755;28;20452;-70
2022/06/13 02:35:58;;;;;;;8.10;3.20;;;14.60;99.90;;;;;;5021373;28;20158;-70
2022/06/13 02:38:37;;;;;;;6.65;2.47;;;14.60;99.90;;;;;;5019850;28;20044;-70
2022/06/13 02:41:14;;;;;;;6.13;2.47;;;14.60;99.90;;;;;;5001921;28;20608;-71
2022/06/13 02:44:00;;;;;;;5.05;1.98;;;14.60;99.90;;;;;;5015800;28;20540;-69
2022/06/13 02:46:34;;;;;;;6.75;2.58;;;14.60;99.90;;;;;;5005148;28;20053;-70
2022/06/13 02:49:22;;;;;;;7.72;3.22;;;14.60;99.90;;;;;;5020450;28;20414;-69
2022/06/13 02:52:09;;;;;;;9.35;2.30;;;14.50;99.90;;;;;;5002638;28;20038;-69
2022/06/13 02:54:40;;;;;;;;;;;14.50;99.90;;;;;;5027347;28;20125;-69
2022/06/13 02:57:25;;;;;;;5.85;2.63;;;14.50;99.90;;;;;;5009315;28;20004;-69
2022/06/13 03:00:06;;;;;;;6.70;1.98;;;14.50;99.90;;;;;;5004406;28;20052;-69
2022/06/13 03:03:00;;;;;;;8.32;2.40;;;14.50;99.90;;;;;;5026638;28;20037;-69
2022/06/13 03:05:38;;;;;;;5.90;1.50;;;14.50;99.90;;;;;;4993844;28;20514;-69
2022/06/13 03:08:14;;;;;;;5.75;1.80;;;14.50;99.90;;;;;;5008883;28;20037;-69
2022/06/13 03:11:05;;;;;;;6.20;1.67;;;14.40;99.90;;;;;;5010654;28;20049;-69
2022/06/13 03:13:40;;;;;;;7.45;1.98;;;14.50;99.90;;;;;;4986704;28;20041;-69
2022/06/13 03:16:17;;;;;;;4.85;1.77;;;14.50;99.90;;;;;;5011636;28;20752;-69
2022/06/13 03:18:57;;;;;;;11.15;1.70;;;14.50;99.90;;;;;;5026083;28;20045;-69
2022/06/13 03:21:40;;;;;;;4.43;1.30;;;14.50;99.90;;;;;;5022763;28;20029;-70
2022/06/13 03:24:25;;;;;;;5.43;1.58;;;14.50;99.90;;;;;;5024064;28;20209;-70
2022/06/13 03:27:00;;;;;;;4.47;1.23;;;14.40;99.90;;;;;;5026060;28;20446;-70
2022/06/13 03:29:44;;;;;;;8.05;1.95;;;14.50;99.90;;;;;;5005743;28;20180;-69
2022/06/13 03:32:18;;;;;;;7.40;2.28;;;14.40;99.90;;;;;;5007007;28;20049;-70
2022/06/13 03:34:48;;;;;;;3.70;1.70;;;14.30;99.90;;;;;;4989557;28;20095;-69
2022/06/13 03:37:19;;;;;;;5.80;2.10;;;14.30;99.90;;;;;;5007978;28;20056;-70
2022/06/13 03:39:54;;;;;;;3.35;1.65;;;14.30;99.90;;;;;;5008691;28;20045;-70
2022/06/13 03:42:25;;;;;;;6.72;2.08;;;14.30;99.90;;;;;;5005010;28;20073;-69
2022/06/13 03:45:11;;;;;;;7.85;1.35;;;14.30;99.90;;;;;;5024223;28;20042;-70
2022/06/13 03:48:04;;;;;;;3.85;1.30;;;14.30;99.90;;;;;;5010704;28;20406;-69
2022/06/13 03:50:45;;;;;;;4.22;1.50;;;14.30;99.90;;;;;;4969495;28;20548;-69
2022/06/13 03:53:25;;;;;;;5.05;1.10;;;14.30;99.90;;;;;;5026181;28;20041;-69
2022/06/13 03:56:19;;;;;;;4.75;1.10;;;14.30;99.90;;;;;;5031677;28;20470;-70
2022/06/13 03:58:51;;;;;;;3.83;1.45;;;14.30;99.90;;;;;;5016285;28;20410;-69
2022/06/13 04:01:47;;;;;;;7.53;1.27;;;14.30;99.90;;;;;;5006721;28;20464;-69
2022/06/13 04:04:19;;;;;;;4.47;1.40;;;14.30;99.90;;;;;;5002890;28;20167;-69
2022/06/13 04:06:45;;;;;;;3.95;1.35;;;14.30;99.90;;;;;;5013918;28;20059;-69
2022/06/13 04:09:30;;;;;;;4.65;1.23;;;14.30;99.90;;;;;;5012853;28;20041;-69
2022/06/13 04:12:08;;;;;;;7.60;1.30;;;14.30;99.90;;;;;;5014887;28;20049;-70
2022/06/13 04:14:56;;;;;;;4.55;1.33;;;14.30;99.90;;;;;;5023220;28;20617;-69
2022/06/13 04:17:38;;;;;;;4.30;1.15;;;14.30;99.90;;;;;;5028655;28;20107;-69
2022/06/13 04:20:19;;;;;;;5.13;1.30;;;14.30;99.90;;;;;;5011101;28;20402;-69
2022/06/13 04:23:04;;;;;;;4.40;1.42;;;14.30;99.90;;;;;;5029731;28;20041;-69
2022/06/13 04:25:41;;;;;;;6.97;1.65;;;14.20;99.90;;;;;;5008544;28;21451;-69
2022/06/13 04:28:16;;;;;;;4.43;1.40;;;14.20;99.90;;;;;;5027120;28;20513;-70
2022/06/13 04:30:42;;;;;;;4.35;1.50;;;14.30;99.90;;;;;;5028159;28;20029;-70
2022/06/13 04:33:29;;;;;;;4.35;1.75;;;14.30;99.90;;;;;;5011185;28;20497;-69
2022/06/13 04:35:56;;;;;;;5.18;1.33;;;14.30;99.90;;;;;;4998617;28;20535;-70
2022/06/13 04:38:24;;;;;;;4.38;1.38;;;14.30;99.90;;;;;;5022636;28;20413;-70
2022/06/13 04:40:57;;;;;;;5.50;1.30;;;14.30;99.90;;;;;;5019403;28;20036;-69
2022/06/13 04:43:27;;;;;;;2.88;0.93;;;14.30;99.90;;;;;;5007418;28;20065;-70
2022/06/13 04:46:16;;;;;;;2.88;0.73;;;14.30;99.90;;;;;;5025532;28;20036;-69
2022/06/13 04:48:45;;;;;;;1.35;0.55;;;14.30;99.90;;;;;;5009876;28;20050;-69
2022/06/13 04:51:16;;;;;;;0.75;0.50;;;14.10;99.90;;;;;;5024959;28;20382;-69
2022/06/13 04:53:54;;;;;;;1.20;0.60;;;14.00;99.90;;;;;;5017074;28;20065;-69
2022/06/13 04:56:21;;;;;;;2.22;0.55;;;13.90;99.90;;;;;;5027084;28;20025;-69
2022/06/13 04:58:48;;;;;;;1.33;0.47;;;13.80;99.90;;;;;;5031040;28;20079;-69
2022/06/13 05:01:28;;;;;;;2.35;0.77;;;13.70;99.90;;;;;;5017140;28;20402;-69
2022/06/13 05:03:58;;;;;;;5.05;0.90;;;13.60;99.90;;;;;;5026027;28;20482;-69
2022/06/13 05:06:31;;;;;;;3.40;0.70;;;13.50;99.90;;;;;;5010663;28;20394;-69
2022/06/13 05:09:02;;;;;;;1.80;0.70;;;13.50;99.90;;;;;;5002838;28;20124;-69
2022/06/13 05:11:51;;;;;;;4.47;0.90;;;13.40;99.90;;;;;;5011761;28;20111;-69
2022/06/13 05:14:22;;;;;;;1.65;0.60;;;13.40;99.90;;;;;;5000463;28;20129;-69
2022/06/13 05:17:00;;;;;;;2.97;0.80;;;13.40;99.90;;;;;;5012694;28;20599;-69
2022/06/13 05:19:45;;;;;;;1.98;0.80;;;13.40;99.90;;;;;;5017041;28;20049;-69
2022/06/13 05:22:33;;;;;;;3.88;0.95;;;13.40;99.90;;;;;;5032637;28;20045;-69
2022/06/13 05:25:16;;;;;;;3.88;0.80;;;13.40;99.90;;;;;;5007448;28;20072;-69
2022/06/13 05:27:42;;;;;;;4.68;0.90;;;13.50;99.90;;;;;;5024172;28;20402;-69
2022/06/13 05:30:13;;;;;;;7.30;0.73;;;13.50;99.90;;;;;;5008056;28;20053;-69
2022/06/13 05:32:39;;;;;;;5.72;1.25;;;13.50;99.90;;;;;;5004294;28;20317;-70
2022/06/13 05:35:05;;;;;;;3.47;1.23;;;13.60;99.90;;;;;;5019764;28;20041;-70
2022/06/13 05:37:31;;;;;;;3.03;1.33;;;13.60;99.90;;;;;;5001735;28;20085;-70
2022/06/13 05:39:59;;;;;;;2.67;0.80;;;13.70;99.90;;;;;;5008478;28;20099;-70
2022/06/13 05:42:25;;;;;;;3.72;0.88;;;13.80;99.90;;;;;;5009625;28;20048;-70
2022/06/13 05:44:50;;;;;;;3.97;0.90;;;13.90;99.90;;;;;;5026009;28;20111;-71
2022/06/13 05:47:18;;;;;;;3.13;0.70;;;14.00;99.90;;;;;;5007804;28;20045;-69
2022/06/13 05:49:45;;;;;;;7.15;1.23;;;14.10;99.90;;;;;;5025890;28;22088;-69
2022/06/13 05:52:11;;;;;;;6.03;1.60;;;14.10;99.90;;;;;;5018039;28;20537;-73
2022/06/13 05:54:37;;;;;;;3.65;0.90;;;14.20;99.90;;;;;;5023978;28;20042;-69
2022/06/13 05:57:03;;;;;;;3.45;1.23;;;14.30;99.90;;;;;;5011480;28;20041;-70
2022/06/13 05:59:29;;;;;;;5.80;0.80;;;14.40;99.90;;;;;;5024979;28;20509;-69
2022/06/13 06:01:54;;;;;;;4.53;0.80;;;14.50;99.90;;;;;;5004238;28;20159;-69
2022/06/13 06:04:20;;;;;;;5.67;1.10;;;14.50;99.90;;;;;;5026896;28;20387;-69
2022/06/13 06:06:46;;;;;;;2.30;0.73;;;14.60;99.90;;;;;;5022551;28;20284;-69
2022/06/13 06:09:13;;;;;;;3.40;0.90;;;14.50;99.90;;;;;;5018487;28;20042;-69
2022/06/13 06:11:39;;;;;;;4.18;0.85;;;14.50;99.90;;;;;;5023061;28;20040;-69
2022/06/13 06:14:05;;;;;;;2.72;1.00;;;14.60;99.90;;;;;;5026042;28;20457;-69
2022/06/13 06:16:30;;;;;;;6.13;0.77;;;14.50;99.90;;;;;;5007965;28;20041;-69
2022/06/13 06:18:56;;;;;;;1.97;0.53;;;14.50;99.90;;;;;;5023238;28;20311;-69
2022/06/13 06:21:23;;;;;;;2.60;0.70;;;14.50;99.90;;;;;;5022465;28;21305;-69
2022/06/13 06:23:48;;;;;;;2.72;0.82;;;14.40;99.90;;;;;;5012023;28;20040;-70
2022/06/13 06:26:18;;;;;;;3.37;0.90;;;14.40;99.90;;;;;;5019092;28;20033;-69
2022/06/13 06:28:43;;;;;;;5.65;0.85;;;14.30;99.90;;;;;;5019957;28;20329;-69
2022/06/13 06:31:10;;;;;;;2.85;0.80;;;14.30;99.90;;;;;;5014448;28;20064;-69
2022/06/13 06:33:35;;;;;;;2.45;0.85;;;14.30;99.90;;;;;;5010303;28;20129;-69
2022/06/13 06:36:01;;;;;;;5.45;0.90;;;14.30;99.90;;;;;;5019206;28;20077;-69
2022/06/13 06:38:27;;;;;;;3.08;1.42;;;14.20;99.90;;;;;;4994523;28;20299;-69
2022/06/13 06:40:53;;;;;;;;;;;14.20;99.90;;;;;;5021008;28;20103;-69
2022/06/13 06:43:19;;;;;;;2.60;0.77;;;14.20;99.90;;;;;;4996680;28;20060;-69
2022/06/13 06:45:45;;;;;;;3.40;1.08;;;14.30;99.90;;;;;;5031265;28;20061;-69
2022/06/13 06:48:15;;;;;;;2.63;0.70;;;14.40;99.90;;;;;;5007929;28;20034;-70
2022/06/13 06:50:43;;;;;;;5.07;0.82;;;14.40;99.90;;;;;;5025069;28;20041;-69
2022/06/13 06:53:10;;;;;;;3.08;1.42;;;14.50;99.90;;;;;;5005440;28;20072;-69
2022/06/13 07:01:08;;;;;;;3.88;0.90;;;14.60;99.90;;;;;;5024715;28;20042;-69
2022/06/13 07:03:34;;;;;;;2.65;0.77;;;14.70;99.90;;;;;;5027573;28;20034;-70
2022/06/13 07:06:00;;;;;;;3.22;0.98;;;14.80;99.90;;;;;;5011470;28;20041;-69
2022/06/13 07:08:27;;;;;;;5.75;1.20;;;14.90;99.90;;;;;;5015325;28;20123;-70
2022/06/13 07:10:53;;;;;;;3.88;0.93;;;15.10;99.90;;;;;;5026407;28;20052;-70
2022/06/13 07:13:19;;;;;;;1.92;0.65;;;15.20;99.90;;;;;;5015576;28;20510;-69
2022/06/13 07:15:48;;;;;;;3.80;0.60;;;15.20;99.90;;;;;;5013525;28;20049;-70
2022/06/13 07:18:14;;;;;;;1.88;0.73;;;15.30;99.90;;;;;;5012719;28;20041;-69
2022/06/13 07:20:39;;;;;;;3.83;0.55;;;15.40;99.90;;;;;;5003397;28;20499;-70
2022/06/13 07:23:06;;;;;;;1.33;0.67;;;15.40;99.90;;;;;;5030446;28;20051;-70
2022/06/13 07:25:32;;;;;;;2.50;0.57;;;15.40;99.90;;;;;;5006246;28;20049;-69
2022/06/13 07:27:58;;;;;;;;;;;15.50;99.90;;;;;;5021869;28;20601;-70
2022/06/13 07:30:26;;;;;;;5.97;0.90;;;15.40;99.90;;;;;;5013497;28;20039;-69
2022/06/13 07:32:53;;;;;;;3.92;0.57;;;15.30;99.90;;;;;;5015240;28;20547;-70
2022/06/13 07:35:22;;;;;;;3.42;1.08;;;15.30;99.90;;;;;;5010248;28;20049;-69
2022/06/13 07:40:36;;;;;;;3.55;0.75;;;15.30;99.90;;;;;;5025349;28;20080;-69
2022/06/13 07:43:03;;;;;;;5.85;0.57;;;15.50;99.90;;;;;;5002113;28;20045;-69
2022/06/13 07:45:33;;;;;;;3.17;1.05;;;15.40;99.90;;;;;;5025136;28;20083;-70
2022/06/13 07:47:59;;;;;;;3.70;0.60;;;15.40;99.90;;;;;;5015816;28;20050;-69
2022/06/13 07:50:27;;;;;;;4.43;0.98;;;15.30;99.90;;;;;;5005862;28;20034;-70
2022/06/13 07:53:02;;;;;;;6.93;0.60;;;15.30;99.90;;;;;;5023753;28;20033;-69
2022/06/13 07:55:31;;;;;;;3.78;0.90;;;15.40;99.90;;;;;;5010791;28;20073;-69
2022/06/13 07:57:57;;;;;;;3.70;0.68;;;15.40;99.90;;;;;;5006758;28;20088;-70
2022/06/13 08:00:26;;;;;;;2.78;0.90;;;15.50;99.90;;;;;;5021588;28;20041;-70
2022/06/13 08:02:53;;;;;;;2.65;0.65;;;15.40;99.90;;;;;;4996633;28;20045;-69
2022/06/13 08:05:20;;;;;;;6.03;0.95;;;15.40;99.90;;;;;;5014964;28;20111;-69
2022/06/13 08:07:45;;;;;;;5.43;0.90;;;15.30;99.90;;;;;;5023093;28;20038;-69
2022/06/13 08:10:11;;;;;;;6.57;0.77;;;15.50;99.90;;;;;;5017632;28;20038;-70
2022/06/13 08:12:41;;;;;;;0.83;0.40;;;15.40;99.90;;;;;;5016442;28;20375;-69
2022/06/13 08:15:07;;;;;;;1.83;0.85;;;15.50;99.90;;;;;;5027008;23;20415;-72
2022/06/13 08:17:33;;;;;;;6.13;0.85;;;15.40;99.90;;;;;;5021081;28;20163;-72
2022/06/13 08:19:59;;;;;;;1.80;0.70;;;15.30;99.90;;;;;;5021412;28;20141;-72
2022/06/13 08:22:24;;;;;;;3.92;1.02;;;15.30;99.90;;;;;;5029101;28;20049;-72
2022/06/13 08:24:50;;;;;;;3.10;0.57;;;15.40;99.90;;;;;;4997897;28;20462;-72
2022/06/13 08:27:15;;;;;;;2.53;0.50;;;15.50;99.90;;;;;;4999776;28;20030;-72
2022/06/13 08:29:42;;;;;;;3.83;0.83;;;15.60;99.90;;;;;;4999942;28;20045;-72
2022/06/13 08:32:08;;;;;;;2.35;0.60;;;15.70;99.90;;;;;;5002975;28;20374;-72
2022/06/13 08:34:34;;;;;;;2.53;0.70;;;15.70;99.90;;;;;;5035039;28;20246;-72
2022/06/13 08:36:59;;;;;;;6.82;0.98;;;15.60;99.90;;;;;;5002884;28;20642;-72
2022/06/13 08:39:25;;;;;;;2.75;0.60;;;15.60;99.90;;;;;;4988393;28;20060;-72
2022/06/13 08:42:03;;;;;;;3.67;0.70;;;15.60;99.90;;;;;;4993553;28;20041;-72
2022/06/13 08:44:59;;;;;;;3.72;0.68;;;15.70;99.90;;;;;;5011007;28;20313;-73
2022/06/13 08:47:49;;;;;;;8.65;0.98;;;15.70;99.90;;;;;;5007933;28;20478;-72
2022/06/13 08:50:35;;;;;;;3.40;0.68;;;15.70;99.90;;;;;;4984344;28;20052;-73
2022/06/13 08:53:07;;;;;;;4.30;0.57;;;15.80;99.90;;;;;;4982739;28;20112;-72
2022/06/13 08:55:54;;;;;;;7.90;0.80;;;15.80;99.90;;;;;;4996469;28;20045;-72
2022/06/13 08:58:19;;;;;;;;;;;15.90;99.90;;;;;;4996151;28;20046;-72
2022/06/13 09:00:57;;;;;;;2.90;0.50;;;15.90;99.90;;;;;;4997877;28;20321;-71
2022/06/13 09:03:32;;;;;;;4.18;0.73;;;16.00;99.90;;;;;;5033658;28;20417;-72
2022/06/13 09:06:14;;;;;;;6.70;0.73;;;16.00;99.90;;;;;;5022660;28;20129;-73
2022/06/13 09:08:58;;;;;;;3.40;0.63;;;16.10;99.90;;;;;;5005158;28;20033;-72
2022/06/13 09:11:50;;;;;;;5.03;1.05;;;16.30;99.90;;;;;;4992812;28;20056;-73
2022/06/13 09:14:25;;;;;;;2.72;0.65;;;16.30;99.90;;;;;;5003835;28;20477;-72
2022/06/13 09:17:20;;;;;;;5.20;0.60;;;16.30;99.90;;;;;;5033381;28;20092;-72
2022/06/13 09:19:49;;;;;;;5.03;0.90;;;16.30;99.90;;;;;;4980833;28;20158;-73
2022/06/13 09:22:22;;;;;;;5.57;0.60;;;16.40;99.90;;;;;;5032930;28;20046;-72
2022/06/13 09:24:57;;;;;;;2.67;0.70;;;16.50;99.90;;;;;;5016545;28;20544;-72
2022/06/13 09:27:28;;;;;;;3.63;0.70;;;16.60;99.90;;;;;;5024980;28;20100;-72
2022/06/13 09:30:07;;;;;;;3.55;0.50;;;16.60;99.90;;;;;;5005912;28;20042;-72
2022/06/13 09:32:44;;;;;;;2.53;0.80;;;16.50;99.90;;;;;;5035206;28;20319;-72
2022/06/13 09:35:23;;;;;;;3.13;0.73;;;16.50;99.90;;;;;;4978917;28;20057;-73
2022/06/13 09:37:56;;;;;;;2.83;0.75;;;16.70;99.90;;;;;;4995086;28;20125;-72
2022/06/13 09:40:55;;;;;;;4.55;1.40;;;16.70;99.90;;;;;;4983446;28;20117;-73
2022/06/13 09:43:40;;;;;;;3.55;1.00;;;16.70;99.90;;;;;;4990506;28;20577;-72
2022/06/13 09:46:12;;;;;;;5.05;1.33;;;16.70;99.90;;;;;;4998278;28;20054;-72
2022/06/13 09:48:59;;;;;;;4.50;1.00;;;16.60;99.90;;;;;;4980777;28;20172;-73
2022/06/13 09:51:40;;;;;;;2.97;0.75;;;16.50;99.90;;;;;;4996370;28;20046;-73
2022/06/13 09:54:17;;;;;;;5.60;0.82;;;16.30;99.90;;;;;;4999883;28;20030;-72
2022/06/13 09:57:04;;;;;;;6.72;0.90;;;16.30;99.90;;;;;;4996091;28;20463;-73
2022/06/13 10:00:05;;;;;;;3.40;0.60;;;16.20;99.90;;;;;;5001937;28;20042;-73
2022/06/13 10:02:45;;;;;;;0.98;0.30;;;16.30;99.90;;;;;;4998629;28;21082;-73
2022/06/13 10:05:32;;;;;;;2.15;0.50;;;16.30;99.90;;;;;;4990346;28;20065;-73
2022/06/13 10:08:23;;;;;;;3.42;0.63;;;16.60;99.90;;;;;;4997534;28;20068;-73
2022/06/13 10:10:59;;;;;;;4.82;0.60;;;16.80;99.90;;;;;;4974665;28;20050;-73
2022/06/13 10:13:40;;;;;;;6.20;0.73;;;17.00;99.90;;;;;;5013301;28;20049;-73
2022/06/13 10:16:23;;;;;;;1.50;0.50;;;17.10;99.90;;;;;;5018237;28;20119;-73
2022/06/13 10:18:57;;;;;;;7.22;1.00;;;17.30;99.90;;;;;;5006950;28;20138;-73
2022/06/13 10:21:42;;;;;;;5.05;0.52;;;17.40;99.90;;;;;;5008637;28;20048;-73
2022/06/13 10:24:18;;;;;;;1.92;0.77;;;17.20;99.90;;;;;;5006457;28;20038;-73
2022/06/13 10:27:21;;;;;;;4.80;0.98;;;16.80;99.90;;;;;;5009158;28;20042;-73
2022/06/13 10:30:03;;;;;;;6.45;1.23;;;16.50;99.90;;;;;;4998885;28;20063;-73
2022/06/13 10:32:49;;;;;;;5.28;1.00;;;16.20;99.90;;;;;;5033140;28;20520;-73
2022/06/13 10:35:42;;;;;;;6.05;0.90;;;16.10;99.90;;;;;;4996466;28;20039;-73
2022/06/13 10:38:26;;;;;;;5.97;1.38;;;15.90;99.90;;;;;;5007229;28;20053;-72
2022/06/13 10:40:52;;;;;;;3.72;1.17;;;15.90;99.90;;;;;;5006839;28;20451;-72
2022/06/13 10:43:18;;;;;;;6.60;1.30;;;15.80;99.90;;;;;;5000143;28;20069;-73
2022/06/13 10:45:45;;;;;;;3.55;0.70;;;15.80;99.90;;;;;;4992009;28;20040;-73
2022/06/13 10:48:19;;;;;;;;;;;15.70;99.90;;;;;;5000018;28;20462;-73
2022/06/13 10:50:55;;;;;;;5.82;1.30;;;15.70;99.90;;;;;;4995737;28;20405;-73
2022/06/13 10:53:23;;;;;;;18.35;1.42;;;15.60;99.90;;;;;;5031831;28;20216;-72
2022/06/13 10:55:51;;;;;;;4.15;1.13;;;15.70;99.90;;;;;;5020536;28;20046;-73
2022/06/13 10:58:30;;;;;;;6.60;1.15;;;15.70;99.90;;;;;;5006557;28;20398;-73
2022/06/13 11:01:09;;;;;;;5.68;1.17;;;15.80;99.90;;;;;;4996282;28;20083;-73
2022/06/13 11:03:35;;;;;;;3.92;0.90;;;16.00;99.90;;;;;;5041422;28;20440;-73
2022/06/13 11:06:03;;;;;;;;;;;16.10;99.90;;;;;;5000420;28;20038;-73
2022/06/13 11:08:30;;;;;;;3.17;1.02;;;16.10;99.90;;;;;;4982993;28;19983;-74
2022/06/13 11:11:01;;;;;;;6.15;1.30;;;16.20;99.90;;;;;;4986414;28;20041;-73
2022/06/13 11:13:34;;;;;;;3.75;0.88;;;16.30;99.90;;;;;;4989982;28;20318;-73
2022/06/13 11:22:37;;;;;;;5.30;0.80;;;16.40;99.90;;;;;;4999805;28;20626;-73
2022/06/13 11:25:30;;;;;;;2.65;0.88;;;16.60;99.90;;;;;;5007047;28;20045;-73
2022/06/13 11:28:02;;;;;;;8.30;2.00;;;16.70;99.90;;;;;;5000242;28;20046;-73
2022/06/13 11:30:28;;;;;;;4.60;0.82;;;16.90;99.90;;;;;;5041033;28;20053;-73
2022/06/13 11:33:12;;;;;;;7.03;1.20;;;17.00;99.90;;;;;;5005906;28;20038;-72
2022/06/13 11:35:48;;;;;;;3.95;0.98;;;17.10;99.90;;;;;;5031007;28;20360;-73
2022/06/13 11:38:29;;;;;;;7.05;1.17;;;17.00;99.90;;;;;;4995851;28;20067;-72
2022/06/13 11:41:08;;;;;;;4.70;0.98;;;16.90;99.90;;;;;;4996884;28;20045;-73
2022/06/13 11:43:34;;;;;;;2.92;0.65;;;16.70;99.90;;;;;;4994873;28;20089;-73
2022/06/13 11:46:03;;;;;;;7.82;1.25;;;16.60;99.90;;;;;;5021268;28;20108;-73
2022/06/13 11:48:30;;;;;;;4.57;1.02;;;16.50;99.90;;;;;;5003008;28;20034;-72
2022/06/13 11:50:59;;;;;;;5.95;1.10;;;16.50;99.90;;;;;;4996518;28;20053;-74
2022/06/13 11:53:38;;;;;;;7.00;1.00;;;16.40;99.90;;;;;;5002725;28;20044;-73
2022/06/13 11:56:11;;;;;;;7.07;1.75;;;16.50;99.90;;;;;;5002446;28;20077;-73
2022/06/13 11:58:41;;;;;;;5.35;1.10;;;16.60;99.90;;;;;;5001128;28;20091;-73
2022/06/13 12:01:18;;;;;;;2.92;0.63;;;16.90;99.90;;;;;;5002077;28;20134;-72
2022/06/13 12:04:04;;;;;;;6.80;1.50;;;17.00;99.90;;;;;;4987286;28;20038;-73
2022/06/13 12:06:56;;;;;;;6.15;0.80;;;16.90;99.90;;;;;;4993467;28;20042;-73
2022/06/13 12:09:31;;;;;;;5.55;0.70;;;17.00;99.90;;;;;;4988341;28;20038;-73
2022/06/13 12:12:07;;;;;;;5.55;1.00;;;17.10;99.90;;;;;;4992988;28;20042;-74
2022/06/13 12:14:41;;;;;;;4.00;0.68;;;17.10;99.90;;;;;;4997402;28;20038;-72
2022/06/13 12:17:32;;;;;;;7.43;1.02;;;17.10;99.90;;;;;;5000657;28;20065;-73
2022/06/13 12:20:04;;;;;;;3.42;0.63;;;17.00;99.90;;;;;;4998921;28;20444;-73
2022/06/13 12:22:45;;;;;;;5.85;1.40;;;16.90;99.90;;;;;;4997361;28;20034;-73
2022/06/13 12:25:23;;;;;;;4.95;0.80;;;17.00;99.90;;;;;;5000217;28;20034;-73
2022/06/13 12:27:55;;;;;;;3.90;0.70;;;17.20;99.90;;;;;;5001478;28;20125;-73
2022/06/13 12:30:49;;;;;;;6.95;0.90;;;17.50;99.90;;;;;;5001827;28;20065;-73
2022/06/13 12:33:24;;;;;;;2.53;0.80;;;17.80;99.90;;;;;;5000139;28;20069;-73
2022/06/13 12:36:27;;;;;;;2.75;0.68;;;18.00;99.90;;;;;;5031922;28;20042;-73
2022/06/13 12:39:11;;;;;;;3.70;0.98;;;18.20;99.90;;;;;;4999337;28;20053;-73
2022/06/13 12:42:12;;;;;;;1.95;0.70;;;18.20;99.90;;;;;;5039889;28;20456;-73
2022/06/13 12:45:07;;;;;;;5.32;0.77;;;18.20;99.90;;;;;;5004293;28;20136;-72
2022/06/13 12:48:07;;;;;;;6.47;0.80;;;18.20;99.90;;;;;;5037387;28;20053;-74
2022/06/13 12:50:51;;;;;;;3.40;0.77;;;18.30;99.90;;;;;;5005975;28;20580;-73
2022/06/13 12:53:25;;;;;;;1.92;0.70;;;18.40;99.90;;;;;;5004313;28;20121;-73
2022/06/13 12:56:07;;;;;;;4.13;0.73;;;18.50;99.90;;;;;;5001027;28;20042;-73
2022/06/13 12:58:35;;;;;;;5.97;1.30;;;18.40;99.90;;;;;;5002421;28;20042;-73
2022/06/13 13:01:10;;;;;;;5.38;0.70;;;18.20;99.90;;;;;;5003397;28;20040;-73
2022/06/13 13:04:10;;;;;;;8.57;1.00;;;18.10;99.90;;;;;;4996681;28;20129;-73
2022/06/13 13:06:57;;;;;;;3.78;0.70;;;18.10;99.90;;;;;;5003325;28;20037;-73
2022/06/13 13:09:32;;;;;;;6.43;1.10;;;18.10;99.90;;;;;;4983777;28;20111;-72
2022/06/13 13:12:19;;;;;;;4.80;0.60;;;18.00;99.90;;;;;;4995941;28;20132;-73
2022/06/13 13:15:04;;;;;;;4.00;0.98;;;18.00;99.90;;;;;;5036948;28;20041;-72
2022/06/13 13:18:02;;;;;;;5.90;1.27;;;18.00;99.90;;;;;;5009581;28;20038;-73
2022/06/13 13:20:54;;;;;;;4.65;0.82;;;17.90;99.90;;;;;;5000690;28;20121;-74
2022/06/13 13:23:31;;;;;;;4.20;0.82;;;17.90;99.90;;;;;;4996511;28;20499;-73
2022/06/13 13:26:04;;;;;;;2.80;0.73;;;18.00;99.90;;;;;;5005909;28;20371;-73
2022/06/13 13:28:37;;;;;;;3.47;0.57;;;18.10;99.90;;;;;;4998475;28;20137;-73
2022/06/13 13:31:41;;;;;;;4.85;0.60;;;18.00;99.90;;;;;;5015159;28;20066;-73
2022/06/13 13:34:23;;;;;;;2.90;0.80;;;18.00;99.90;;;;;;4976440;28;21449;-73
2022/06/13 13:37:01;;;;;;;2.58;0.77;;;18.00;99.90;;;;;;4997513;28;20129;-72
2022/06/13 13:39:37;;;;;;;3.10;0.60;;;17.90;99.90;;;;;;4989367;28;20367;-73
2022/06/13 13:42:31;;;;;;;3.58;0.80;;;17.90;99.90;;;;;;5002351;28;20046;-72
2022/06/13 13:45:22;;;;;;;2.15;0.55;;;17.80;99.90;;;;;;4980627;28;20077;-73
2022/06/13 13:47:53;;;;;;;2.95;0.38;;;17.80;99.90;;;;;;5018503;28;20281;-74